Time;durP1;ratioP1;P1;durP2;ratioP2;P2;SDS_P1;SDS_P2;PMS_P1;PMS_P2;Temp;Humidity;BMP_temperature;BMP_pressure;BME280_temperature;BME280_humidity;BME280_pressure;Samples;Min_cycle;Max_cycle;Signal;HPM_P1;HPM_P2
2024/05/01 00:00:43;;;;;;;46.47;34.58;;;14.60;99.90;;;;;;5559390;25;20003;-64
2024/05/01 00:03:09;;;;;;;43.35;34.53;;;14.60;99.90;;;;;;5549087;25;19997;-64
2024/05/01 00:05:36;;;;;;;40.92;33.63;;;14.50;99.90;;;;;;5558995;25;19996;-64
2024/05/01 00:08:02;;;;;;;42.90;34.88;;;14.60;99.90;;;;;;5561034;25;20004;-64
2024/05/01 00:10:28;;;;;;;46.33;35.50;;;14.60;99.90;;;;;;5557720;25;20085;-64
2024/05/01 00:12:54;;;;;;;45.03;35.13;;;14.60;99.90;;;;;;5558121;25;19997;-64
2024/05/01 00:15:20;;;;;;;39.88;34.58;;;14.60;99.90;;;;;;5552200;25;20638;-64
2024/05/01 00:17:46;;;;;;;41.30;34.47;;;14.60;99.90;;;;;;5535265;25;20038;-64
2024/05/01 00:20:11;;;;;;;45.03;36.05;;;14.60;99.90;;;;;;5553826;25;19996;-64
2024/05/01 00:22:38;;;;;;;42.13;34.00;;;14.60;99.90;;;;;;5542520;25;20008;-64
2024/05/01 00:25:04;;;;;;;41.45;34.70;;;14.60;99.90;;;;;;5549372;25;19997;-64
2024/05/01 00:27:30;;;;;;;40.70;33.85;;;14.60;99.90;;;;;;5555775;25;19997;-64
2024/05/01 00:29:59;;;;;;;42.03;33.72;;;14.60;99.90;;;;;;5559208;25;20005;-64
2024/05/01 00:32:24;;;;;;;40.55;33.42;;;14.60;99.90;;;;;;5547187;25;20370;-64
2024/05/01 00:34:50;;;;;;;42.40;34.28;;;14.60;99.90;;;;;;5547416;25;20013;-64
2024/05/01 00:37:16;;;;;;;41.53;32.75;;;14.50;99.90;;;;;;5562499;25;20012;-63
2024/05/01 00:39:42;;;;;;;41.05;31.73;;;14.50;99.90;;;;;;5557626;25;19997;-64
2024/05/01 00:42:08;;;;;;;36.85;31.70;;;14.50;99.90;;;;;;5576597;25;20035;-63
2024/05/01 00:44:34;;;;;;;40.90;31.48;;;14.50;99.90;;;;;;5554802;25;20008;-64
2024/05/01 00:47:01;;;;;;;47.15;34.60;;;14.40;99.90;;;;;;5549917;25;19997;-63
2024/05/01 00:49:28;;;;;;;44.13;34.20;;;14.30;99.90;;;;;;5561152;25;19997;-63
2024/05/01 00:51:54;;;;;;;45.40;33.63;;;14.30;99.90;;;;;;5548256;25;19996;-64
2024/05/01 00:54:20;;;;;;;49.67;36.35;;;14.30;99.90;;;;;;5576220;25;20004;-64
2024/05/01 00:56:48;;;;;;;45.50;35.88;;;14.20;99.90;;;;;;5558711;25;20431;-64
2024/05/01 00:59:14;;;;;;;47.80;36.90;;;14.20;99.90;;;;;;5555656;25;20053;-64
2024/05/01 01:01:40;;;;;;;47.22;36.63;;;14.20;99.90;;;;;;5573217;25;20068;-63
2024/05/01 01:04:06;;;;;;;46.40;36.05;;;14.20;99.90;;;;;;5556904;25;20001;-63
2024/05/01 01:06:33;;;;;;;47.17;37.97;;;14.20;99.90;;;;;;5554897;25;20008;-63
2024/05/01 01:08:58;;;;;;;46.42;35.03;;;14.20;99.90;;;;;;5525170;25;20036;-64
2024/05/01 01:11:24;;;;;;;43.53;35.22;;;14.10;99.90;;;;;;5562045;25;20219;-64
2024/05/01 01:13:50;;;;;;;47.92;36.85;;;14.10;99.90;;;;;;5559236;25;20347;-64
2024/05/01 01:16:16;;;;;;;48.08;36.53;;;14.10;99.90;;;;;;5551248;25;19997;-64
2024/05/01 01:18:42;;;;;;;46.30;36.05;;;14.10;99.90;;;;;;5553099;25;20019;-64
2024/05/01 01:21:08;;;;;;;40.42;34.75;;;14.10;99.90;;;;;;5557908;25;20037;-63
2024/05/01 01:23:35;;;;;;;44.05;35.00;;;14.20;99.90;;;;;;5557084;25;19992;-63
2024/05/01 01:26:02;;;;;;;49.33;35.78;;;14.10;99.90;;;;;;5560516;25;20008;-63
2024/05/01 01:28:28;;;;;;;46.13;36.40;;;14.10;99.90;;;;;;5557036;25;20584;-63
2024/05/01 01:30:54;;;;;;;48.17;34.65;;;14.20;99.90;;;;;;5536677;25;20455;-64
2024/05/01 01:33:20;;;;;;;42.80;34.53;;;14.10;99.90;;;;;;5553793;25;19997;-63
2024/05/01 01:35:46;;;;;;;46.88;34.00;;;14.10;99.90;;;;;;5544696;25;20009;-63
2024/05/01 01:38:12;;;;;;;45.03;34.05;;;14.20;99.90;;;;;;5557315;25;19997;-64
2024/05/01 01:40:39;;;;;;;47.88;36.38;;;14.10;99.90;;;;;;5558822;25;20076;-64
2024/05/01 01:43:05;;;;;;;42.15;34.08;;;14.20;99.90;;;;;;5559499;25;20434;-63
2024/05/01 01:45:31;;;;;;;48.80;36.88;;;14.20;99.90;;;;;;5553684;25;19996;-63
2024/05/01 01:47:57;;;;;;;42.05;34.88;;;14.20;99.90;;;;;;5527111;25;20018;-64
2024/05/01 01:50:23;;;;;;;46.85;35.03;;;14.30;99.90;;;;;;5546892;25;19996;-64
2024/05/01 01:52:50;;;;;;;44.22;35.40;;;14.20;99.90;;;;;;5556104;25;20529;-63
2024/05/01 01:55:15;;;;;;;50.17;36.40;;;14.30;99.90;;;;;;5556437;25;20881;-63
2024/05/01 01:57:42;;;;;;;40.72;33.33;;;14.30;99.90;;;;;;5549676;25;20377;-64
2024/05/01 02:00:09;;;;;;;45.75;35.47;;;14.30;99.90;;;;;;5550281;25;20131;-63
2024/05/01 02:02:36;;;;;;;47.60;36.15;;;14.30;99.90;;;;;;5559753;25;19997;-63
2024/05/01 02:05:02;;;;;;;48.40;36.58;;;14.30;99.90;;;;;;5551267;25;20470;-64
2024/05/01 02:07:28;;;;;;;48.00;34.65;;;14.30;99.90;;;;;;5550563;25;20667;-64
2024/05/01 02:09:55;;;;;;;44.80;35.75;;;14.20;99.90;;;;;;5521453;25;19993;-63
2024/05/01 02:12:23;;;;;;;42.58;33.45;;;14.20;99.90;;;;;;5541343;25;20589;-63
2024/05/01 02:14:50;;;;;;;45.25;34.53;;;14.20;99.90;;;;;;5555003;25;19997;-64
2024/05/01 02:17:16;;;;;;;46.58;35.58;;;14.20;99.90;;;;;;5547815;25;20004;-64
2024/05/01 02:19:42;;;;;;;46.70;34.85;;;14.10;99.90;;;;;;5554900;25;20756;-64
2024/05/01 02:22:08;;;;;;;43.65;33.88;;;14.10;99.90;;;;;;5509306;25;20083;-64
2024/05/01 02:24:34;;;;;;;43.03;35.00;;;14.10;99.90;;;;;;5542579;25;20009;-63
2024/05/01 02:27:00;;;;;;;46.17;34.95;;;14.10;99.90;;;;;;5549221;25;19997;-63
2024/05/01 02:29:26;;;;;;;42.38;34.72;;;14.10;99.90;;;;;;5555995;25;19993;-63
2024/05/01 02:31:52;;;;;;;42.92;32.65;;;14.10;99.90;;;;;;5558605;25;20745;-63
2024/05/01 02:34:18;;;;;;;44.17;34.65;;;14.00;99.90;;;;;;5557937;25;20016;-63
2024/05/01 02:36:45;;;;;;;46.75;33.47;;;14.00;99.90;;;;;;5562460;25;20012;-64
2024/05/01 02:39:10;;;;;;;39.05;32.03;;;14.00;99.90;;;;;;5559668;25;20615;-64
2024/05/01 02:41:36;;;;;;;40.40;31.58;;;14.00;99.90;;;;;;5551107;25;20066;-63
2024/05/01 02:44:02;;;;;;;42.50;32.17;;;14.00;99.90;;;;;;5556149;25;19996;-63
2024/05/01 02:46:29;;;;;;;40.38;33.45;;;13.90;99.90;;;;;;5558924;25;19997;-63
2024/05/01 02:48:55;;;;;;;38.88;33.88;;;13.90;99.90;;;;;;5562705;25;20004;-63
2024/05/01 02:51:21;;;;;;;40.85;34.03;;;14.00;99.90;;;;;;5561434;25;20033;-63
2024/05/01 02:53:47;;;;;;;43.80;34.88;;;14.00;99.90;;;;;;5559057;25;20074;-63
2024/05/01 02:56:13;;;;;;;43.10;34.83;;;14.00;99.90;;;;;;5560250;25;20044;-64
2024/05/01 02:58:43;;;;;;;48.28;34.85;;;14.00;99.90;;;;;;5562554;25;20072;-63
2024/05/01 03:01:09;;;;;;;43.38;35.47;;;14.00;99.90;;;;;;5561807;25;20552;-63
2024/05/01 03:03:37;;;;;;;44.20;34.58;;;14.10;99.90;;;;;;5556533;25;20009;-63
2024/05/01 03:06:03;;;;;;;39.20;33.55;;;14.00;99.90;;;;;;5571209;25;19996;-63
2024/05/01 03:08:31;;;;;;;42.28;34.53;;;14.10;99.90;;;;;;5561274;25;20097;-64
2024/05/01 03:10:57;;;;;;;41.92;33.08;;;14.10;99.90;;;;;;5557894;25;19996;-63
2024/05/01 03:13:22;;;;;;;43.40;33.08;;;14.10;99.90;;;;;;5556999;25;20639;-64
2024/05/01 03:15:48;;;;;;;38.53;32.95;;;14.10;99.90;;;;;;5558014;25;20719;-63
2024/05/01 03:18:21;;;;;;;41.53;31.75;;;14.00;99.90;;;;;;5557941;25;20001;-63
2024/05/01 03:20:47;;;;;;;38.47;31.33;;;14.10;99.90;;;;;;5556907;25;20012;-64
2024/05/01 03:23:13;;;;;;;39.78;32.05;;;14.10;99.90;;;;;;5559815;25;19997;-64
2024/05/01 03:25:39;;;;;;;40.10;32.03;;;14.00;99.90;;;;;;5558157;25;20083;-64
2024/05/01 03:28:06;;;;;;;38.88;30.52;;;14.10;99.90;;;;;;5559561;25;20004;-64
2024/05/01 03:30:32;;;;;;;40.78;30.50;;;14.00;99.90;;;;;;5558133;25;20045;-64
2024/05/01 03:32:58;;;;;;;39.90;30.50;;;14.00;99.90;;;;;;5557577;25;20446;-63
2024/05/01 03:35:24;;;;;;;41.92;33.08;;;14.00;99.90;;;;;;5558846;25;19997;-63
2024/05/01 03:37:50;;;;;;;40.08;32.97;;;14.00;99.90;;;;;;5553003;25;20331;-63
2024/05/01 03:40:16;;;;;;;39.20;32.45;;;13.90;99.90;;;;;;5561668;25;20012;-63
2024/05/01 03:42:48;;;;;;;39.85;32.17;;;13.90;99.90;;;;;;5529630;25;19993;-64
2024/05/01 03:45:14;;;;;;;42.40;32.63;;;14.00;99.90;;;;;;5555410;25;20482;-63
2024/05/01 03:47:44;;;;;;;37.83;32.08;;;14.00;99.90;;;;;;5559275;25;20016;-63
2024/05/01 03:50:10;;;;;;;42.92;33.60;;;14.00;99.90;;;;;;5558154;25;20547;-63
2024/05/01 03:52:36;;;;;;;40.25;32.67;;;13.90;99.90;;;;;;5535618;25;19998;-63
2024/05/01 03:55:03;;;;;;;43.40;33.13;;;13.80;99.90;;;;;;5551733;25;20053;-63
2024/05/01 03:57:29;;;;;;;44.70;33.50;;;13.90;99.90;;;;;;5559346;25;19997;-63
2024/05/01 04:00:09;;;;;;;40.13;32.83;;;13.80;99.90;;;;;;5555621;25;20015;-63
2024/05/01 04:02:35;;;;;;;39.75;33.20;;;13.80;99.90;;;;;;5559379;25;20715;-63
2024/05/01 04:05:08;;;;;;;40.08;31.38;;;13.70;99.90;;;;;;5545868;25;20033;-63
2024/05/01 04:07:35;;;;;;;42.58;33.35;;;13.70;99.90;;;;;;5546839;25;19997;-63
2024/05/01 04:10:01;;;;;;;41.60;32.45;;;13.60;99.90;;;;;;5562415;25;20358;-63
2024/05/01 04:12:26;;;;;;;38.55;31.98;;;13.50;99.90;;;;;;5549866;25;20032;-63
2024/05/01 04:14:53;;;;;;;41.80;33.88;;;13.50;99.90;;;;;;5547415;25;20036;-63
2024/05/01 04:17:18;;;;;;;41.85;33.90;;;13.50;99.90;;;;;;5554899;25;20020;-63
2024/05/01 04:19:44;;;;;;;47.00;35.17;;;13.50;99.90;;;;;;5554385;25;20112;-63
2024/05/01 04:22:10;;;;;;;43.88;35.92;;;13.50;99.90;;;;;;5553476;25;20600;-63
2024/05/01 04:24:36;;;;;;;42.60;33.97;;;13.40;99.90;;;;;;5549736;25;20072;-63
2024/05/01 04:27:03;;;;;;;46.47;35.47;;;13.40;99.90;;;;;;5540847;25;20037;-63
2024/05/01 04:29:30;;;;;;;39.28;32.67;;;13.40;99.90;;;;;;5548067;25;20072;-63
2024/05/01 04:31:59;;;;;;;47.30;34.97;;;13.30;99.90;;;;;;5554813;25;20008;-63
2024/05/01 04:34:25;;;;;;;40.65;34.20;;;13.30;99.90;;;;;;5550787;25;20020;-63
2024/05/01 04:36:50;;;;;;;40.75;31.38;;;13.30;99.90;;;;;;5547464;25;19997;-63
2024/05/01 04:39:17;;;;;;;41.95;31.55;;;13.30;99.90;;;;;;5549122;25;20458;-63
2024/05/01 04:41:42;;;;;;;37.92;31.23;;;13.20;99.90;;;;;;5542295;25;20793;-63
2024/05/01 04:44:08;;;;;;;37.03;30.83;;;13.20;99.90;;;;;;5532335;25;19996;-64
2024/05/01 04:46:34;;;;;;;36.47;30.35;;;13.30;99.90;;;;;;5544253;25;19998;-63
2024/05/01 04:49:00;;;;;;;41.50;32.60;;;13.20;99.90;;;;;;5548223;25;20429;-63
2024/05/01 04:51:27;;;;;;;39.60;32.15;;;13.20;99.90;;;;;;5541597;25;20004;-63
2024/05/01 04:53:52;;;;;;;37.55;32.58;;;13.20;99.90;;;;;;5560887;25;20418;-63
2024/05/01 04:56:19;;;;;;;39.00;31.95;;;13.30;99.90;;;;;;5556304;25;20005;-63
2024/05/01 04:58:45;;;;;;;40.42;34.85;;;13.30;99.90;;;;;;5546089;25;20066;-63
2024/05/01 05:01:12;;;;;;;42.00;34.28;;;13.30;99.90;;;;;;5552025;25;20661;-63
2024/05/01 05:03:38;;;;;;;44.58;34.78;;;13.40;99.90;;;;;;5557390;25;19996;-63
2024/05/01 05:06:04;;;;;;;40.80;32.92;;;13.40;99.90;;;;;;5550508;25;19997;-63
2024/05/01 05:08:31;;;;;;;46.53;32.97;;;13.50;99.90;;;;;;5559492;25;19997;-63
2024/05/01 05:10:58;;;;;;;38.97;32.40;;;13.50;99.90;;;;;;5561623;25;19997;-63
2024/05/01 05:13:24;;;;;;;42.42;34.17;;;13.60;99.90;;;;;;5557448;25;19993;-63
2024/05/01 05:15:50;;;;;;;41.80;33.88;;;13.70;99.90;;;;;;5557175;25;20579;-63
2024/05/01 05:18:16;;;;;;;40.97;32.63;;;13.70;99.90;;;;;;5555201;25;20002;-63
2024/05/01 05:20:42;;;;;;;41.20;33.30;;;13.80;99.90;;;;;;5554732;25;19997;-63
2024/05/01 05:23:08;;;;;;;40.28;31.90;;;13.90;99.90;;;;;;5555556;25;20776;-63
2024/05/01 05:25:34;;;;;;;42.42;33.92;;;13.90;99.90;;;;;;5555136;25;20320;-63
2024/05/01 05:28:07;;;;;;;44.00;33.20;;;14.10;99.90;;;;;;5550263;25;19997;-63
2024/05/01 05:30:33;;;;;;;40.10;33.85;;;14.20;99.90;;;;;;5554456;25;20011;-63
2024/05/01 05:32:59;;;;;;;42.03;34.47;;;14.20;99.90;;;;;;5553757;25;19996;-63
2024/05/01 05:35:25;;;;;;;39.63;34.08;;;14.30;99.90;;;;;;5549720;25;20460;-63
2024/05/01 05:37:52;;;;;;;38.75;33.63;;;14.30;99.90;;;;;;5551056;25;20009;-63
2024/05/01 05:40:17;;;;;;;39.55;34.05;;;14.30;99.90;;;;;;5544085;25;20491;-63
2024/05/01 05:42:43;;;;;;;47.10;34.75;;;14.40;99.90;;;;;;5556867;25;19997;-63
2024/05/01 05:45:09;;;;;;;47.05;35.78;;;14.50;99.90;;;;;;5560092;25;20008;-63
2024/05/01 05:47:35;;;;;;;44.40;35.78;;;14.50;99.90;;;;;;5556630;25;20019;-63
2024/05/01 05:50:01;;;;;;;42.83;35.00;;;14.50;99.90;;;;;;5550290;25;20009;-63
2024/05/01 05:52:27;;;;;;;44.38;36.78;;;14.50;99.90;;;;;;5552697;25;20004;-63
2024/05/01 05:54:53;;;;;;;39.88;35.05;;;14.60;99.90;;;;;;5559230;25;20663;-63
2024/05/01 05:57:19;;;;;;;43.92;35.78;;;14.70;99.90;;;;;;5556967;25;19996;-63
2024/05/01 05:59:45;;;;;;;44.08;35.60;;;14.80;99.90;;;;;;5545117;25;20342;-63
2024/05/01 06:02:11;;;;;;;39.30;34.03;;;14.80;99.90;;;;;;5566510;25;20000;-63
2024/05/01 06:04:38;;;;;;;46.13;34.92;;;14.90;99.90;;;;;;5564666;25;20067;-63
2024/05/01 06:07:03;;;;;;;42.38;34.28;;;15.00;99.90;;;;;;5554131;25;19997;-63
2024/05/01 06:09:30;;;;;;;39.45;32.58;;;15.10;99.90;;;;;;5557712;25;20461;-63
2024/05/01 06:11:56;;;;;;;41.00;33.95;;;15.10;99.90;;;;;;5538069;25;20469;-63
2024/05/01 06:14:22;;;;;;;39.85;33.63;;;15.20;99.90;;;;;;5556710;25;20009;-64
2024/05/01 06:16:48;;;;;;;48.85;35.53;;;15.30;99.90;;;;;;5537641;25;20072;-64
2024/05/01 06:19:14;;;;;;;40.72;35.47;;;15.30;99.90;;;;;;5551285;25;21146;-64
2024/05/01 06:21:40;;;;;;;43.70;35.08;;;15.40;99.90;;;;;;5553055;25;20008;-64
2024/05/01 06:24:06;;;;;;;44.30;35.38;;;15.50;99.90;;;;;;5551288;25;20076;-64
2024/05/01 06:26:32;;;;;;;41.67;33.67;;;15.60;99.90;;;;;;5553551;25;20009;-64
2024/05/01 06:28:59;;;;;;;43.60;35.08;;;15.60;99.90;;;;;;5544954;25;20343;-63
2024/05/01 06:31:25;;;;;;;39.70;32.60;;;15.70;99.90;;;;;;5545849;25;20007;-64
2024/05/01 06:33:50;;;;;;;41.63;33.55;;;15.80;99.90;;;;;;5555358;25;20008;-64
2024/05/01 06:36:17;;;;;;;40.47;33.58;;;15.80;99.90;;;;;;5546304;25;19997;-63
2024/05/01 06:38:44;;;;;;;42.22;33.88;;;15.90;99.90;;;;;;5551664;25;20073;-64
2024/05/01 06:41:09;;;;;;;37.97;31.83;;;16.00;99.90;;;;;;5550561;25;19997;-63
2024/05/01 06:43:36;;;;;;;43.97;33.67;;;16.00;99.90;;;;;;5532441;25;20495;-63
2024/05/01 06:46:02;;;;;;;41.60;31.13;;;16.10;99.90;;;;;;5532481;25;20008;-63
2024/05/01 06:48:28;;;;;;;40.88;33.15;;;16.20;99.90;;;;;;5556814;25;20050;-64
2024/05/01 06:50:54;;;;;;;37.63;32.03;;;16.30;99.90;;;;;;5553548;25;20072;-64
2024/05/01 06:53:20;;;;;;;39.08;31.85;;;16.50;99.90;;;;;;5555702;25;20048;-64
2024/05/01 06:55:46;;;;;;;44.78;32.42;;;16.60;99.90;;;;;;5549202;25;20494;-64
2024/05/01 06:58:12;;;;;;;41.42;30.73;;;16.60;99.90;;;;;;5550641;25;20009;-63
2024/05/01 07:00:38;;;;;;;37.75;28.95;;;16.70;99.90;;;;;;5552485;25;19997;-64
2024/05/01 07:03:05;;;;;;;39.22;29.60;;;16.80;99.90;;;;;;5549195;25;19997;-64
2024/05/01 07:05:31;;;;;;;35.60;28.20;;;16.90;99.90;;;;;;5528285;25;20067;-63
2024/05/01 07:07:56;;;;;;;40.33;29.83;;;17.00;99.90;;;;;;5568411;25;20430;-64
2024/05/01 07:10:22;;;;;;;32.60;27.13;;;17.10;99.90;;;;;;5544637;25;20512;-63
2024/05/01 07:12:48;;;;;;;42.25;29.42;;;17.20;99.90;;;;;;5534231;25;20066;-63
2024/05/01 07:15:14;;;;;;;33.55;26.23;;;17.40;99.90;;;;;;5551096;25;20007;-64
2024/05/01 07:17:40;;;;;;;37.92;27.98;;;17.50;99.90;;;;;;5546291;25;19993;-63
2024/05/01 07:20:06;;;;;;;34.25;26.95;;;17.60;99.90;;;;;;5567298;25;20012;-63
2024/05/01 07:22:32;;;;;;;31.98;25.80;;;17.70;99.90;;;;;;5548118;25;19996;-64
2024/05/01 07:24:58;;;;;;;33.40;26.75;;;17.80;99.90;;;;;;5543312;25;20016;-64
2024/05/01 07:27:24;;;;;;;32.78;26.17;;;18.00;99.90;;;;;;5548870;25;20053;-64
2024/05/01 07:29:50;;;;;;;34.45;24.90;;;18.10;99.90;;;;;;5557875;25;20619;-64
2024/05/01 07:32:16;;;;;;;33.50;24.73;;;18.20;99.90;;;;;;5554106;25;20037;-64
2024/05/01 07:34:42;;;;;;;31.63;23.98;;;18.40;99.90;;;;;;5547072;25;20045;-64
2024/05/01 07:37:08;;;;;;;31.77;22.42;;;18.50;99.90;;;;;;5550599;25;20016;-63
2024/05/01 07:39:34;;;;;;;27.25;22.48;;;18.60;99.90;;;;;;5555129;25;20012;-64
2024/05/01 07:42:00;;;;;;;28.90;21.88;;;18.70;99.90;;;;;;5551677;25;20015;-63
2024/05/01 07:44:26;;;;;;;26.92;20.20;;;18.90;99.90;;;;;;5549380;25;20016;-63
2024/05/01 07:46:52;;;;;;;29.38;22.55;;;19.00;99.90;;;;;;5551058;25;20046;-63
2024/05/01 07:49:18;;;;;;;27.30;21.50;;;19.00;99.90;;;;;;5555237;25;20004;-63
2024/05/01 07:51:44;;;;;;;27.05;21.80;;;19.20;99.90;;;;;;5546306;25;20009;-63
2024/05/01 07:54:10;;;;;;;26.60;21.63;;;19.20;99.90;;;;;;5559637;25;19992;-64
2024/05/01 07:56:35;;;;;;;29.48;21.50;;;19.30;99.90;;;;;;5562075;25;20008;-64
2024/05/01 07:59:02;;;;;;;23.80;20.45;;;19.30;99.90;;;;;;5553270;25;20005;-63
2024/05/01 08:01:27;;;;;;;28.30;21.52;;;19.30;99.90;;;;;;5558870;25;20011;-63
2024/05/01 08:03:54;;;;;;;25.70;21.02;;;19.40;99.90;;;;;;5555634;25;20025;-64
2024/05/01 08:06:20;;;;;;;28.55;20.60;;;19.40;99.90;;;;;;5552328;25;19997;-64
2024/05/01 08:08:46;;;;;;;23.02;19.90;;;19.50;99.90;;;;;;5539866;25;20005;-63
2024/05/01 08:11:12;;;;;;;25.48;20.35;;;19.50;99.90;;;;;;5549079;25;19996;-64
2024/05/01 08:13:38;;;;;;;26.60;20.33;;;19.70;99.90;;;;;;5558195;25;20000;-64
2024/05/01 08:16:04;;;;;;;24.05;18.83;;;19.70;99.90;;;;;;5551830;25;20000;-63
2024/05/01 08:18:30;;;;;;;27.08;20.35;;;19.80;99.90;;;;;;5559006;25;19996;-63
2024/05/01 08:20:56;;;;;;;23.65;18.38;;;19.90;99.90;;;;;;5546000;25;19994;-63
2024/05/01 08:23:22;;;;;;;25.52;18.13;;;19.90;99.90;;;;;;5550268;25;19997;-64
2024/05/01 08:25:50;;;;;;;24.77;18.83;;;20.00;99.90;;;;;;5557694;25;20028;-63
2024/05/01 08:28:19;;;;;;;25.05;17.20;;;20.00;99.90;;;;;;5554529;25;20011;-63
2024/05/01 08:30:45;;;;;;;22.15;16.67;;;20.20;99.90;;;;;;5556238;25;20431;-63
2024/05/01 08:33:11;;;;;;;20.25;16.13;;;20.30;99.90;;;;;;5552164;25;20004;-63
2024/05/01 08:35:37;;;;;;;24.92;16.42;;;20.30;99.90;;;;;;5552318;25;20011;-64
2024/05/01 08:38:03;;;;;;;20.52;17.70;;;20.40;99.90;;;;;;5559097;25;20846;-63
2024/05/01 08:40:29;;;;;;;23.25;18.08;;;20.40;99.90;;;;;;5551255;25;20346;-64
2024/05/01 08:42:55;;;;;;;25.15;18.10;;;20.50;99.90;;;;;;5553511;25;20025;-63
2024/05/01 08:45:23;;;;;;;24.20;17.70;;;20.40;99.90;;;;;;5552591;25;20012;-64
2024/05/01 08:47:51;;;;;;;22.30;18.08;;;20.60;99.90;;;;;;5557858;25;20004;-64
2024/05/01 08:50:17;;;;;;;25.20;19.17;;;20.60;99.90;;;;;;5558538;25;20430;-63
2024/05/01 08:52:55;;;;;;;22.88;17.92;;;20.60;99.90;;;;;;5552166;25;20052;-63
2024/05/01 08:55:22;;;;;;;24.48;17.83;;;20.50;99.90;;;;;;5551740;25;20029;-63
2024/05/01 08:57:49;;;;;;;20.25;17.48;;;20.50;99.90;;;;;;5525058;25;20068;-63
2024/05/01 09:00:18;;;;;;;20.95;17.17;;;20.60;99.90;;;;;;5553409;25;20089;-64
2024/05/01 09:02:45;;;;;;;25.77;17.23;;;20.70;99.90;;;;;;5555054;25;20009;-63
2024/05/01 09:05:12;;;;;;;28.60;17.08;;;20.70;99.90;;;;;;5558090;25;19997;-63
2024/05/01 09:07:37;;;;;;;24.73;16.80;;;20.90;99.90;;;;;;5559720;25;19996;-63
2024/05/01 09:10:04;;;;;;;21.17;16.92;;;21.00;99.90;;;;;;5562144;25;20486;-63
2024/05/01 09:12:30;;;;;;;21.20;16.83;;;20.90;99.90;;;;;;5563437;25;20077;-63
2024/05/01 09:15:08;;;;;;;20.02;16.38;;;21.00;99.90;;;;;;5556062;25;19997;-63
2024/05/01 09:17:34;;;;;;;24.52;18.20;;;21.00;99.90;;;;;;5556419;25;19997;-62
2024/05/01 09:20:21;;;;;;;26.15;17.52;;;21.00;99.90;;;;;;5541907;25;19996;-63
2024/05/01 09:22:51;;;;;;;25.48;17.92;;;21.10;99.90;;;;;;5544471;25;20031;-63
2024/05/01 09:25:19;;;;;;;20.85;17.35;;;21.30;99.90;;;;;;5557992;25;20008;-63
2024/05/01 09:27:45;;;;;;;29.83;17.92;;;21.30;99.90;;;;;;5548756;25;20046;-62
2024/05/01 09:30:11;;;;;;;22.77;17.58;;;21.40;99.90;;;;;;5561453;25;20303;-62
2024/05/01 09:32:37;;;;;;;26.58;17.48;;;21.50;99.90;;;;;;5536211;25;19997;-62
2024/05/01 09:35:04;;;;;;;22.15;16.17;;;21.60;99.90;;;;;;5538345;25;20068;-62
2024/05/01 09:37:31;;;;;;;20.60;16.00;;;21.70;99.90;;;;;;5552711;25;20423;-63
2024/05/01 09:40:02;;;;;;;22.00;15.93;;;21.90;99.90;;;;;;5556441;25;20001;-63
2024/05/01 09:42:28;;;;;;;20.73;15.43;;;22.10;99.90;;;;;;5527436;25;20126;-63
2024/05/01 09:45:01;;;;;;;26.23;15.98;;;22.30;99.90;;;;;;5558032;25;19997;-63
2024/05/01 09:47:32;;;;;;;21.27;15.35;;;22.40;99.90;;;;;;5552932;25;20001;-65
2024/05/01 09:50:03;;;;;;;25.40;14.73;;;22.50;99.90;;;;;;5554103;25;19993;-62
2024/05/01 09:52:29;;;;;;;21.20;14.88;;;22.60;99.90;;;;;;5560334;25;20364;-63
2024/05/01 09:54:56;;;;;;;21.20;15.85;;;22.70;99.90;;;;;;5556568;25;20067;-63
2024/05/01 09:57:26;;;;;;;18.95;14.98;;;22.70;99.90;;;;;;5554186;25;20072;-63
2024/05/01 09:59:56;;;;;;;17.70;14.68;;;22.80;99.90;;;;;;5556908;25;20012;-63
2024/05/01 10:02:32;;;;;;;20.48;12.75;;;22.90;99.90;;;;;;5543107;25;20461;-63
2024/05/01 10:05:06;;;;;;;19.85;13.80;;;23.00;99.90;;;;;;5536303;25;19997;-62
2024/05/01 10:07:46;;;;;;;14.65;10.20;;;23.10;99.90;;;;;;5560951;25;19997;-63
2024/05/01 10:10:12;;;;;;;11.98;8.57;;;23.20;99.90;;;;;;5548036;25;20435;-63
2024/05/01 10:13:10;;;;;;;13.82;9.27;;;23.20;99.90;;;;;;5557466;25;20015;-63
2024/05/01 10:15:36;;;;;;;13.98;9.90;;;23.10;99.90;;;;;;5547735;25;20008;-63
2024/05/01 10:18:08;;;;;;;14.20;10.10;;;23.10;99.90;;;;;;5559350;25;20004;-63
2024/05/01 10:20:46;;;;;;;14.52;9.90;;;23.10;99.90;;;;;;5565528;25;20059;-63
2024/05/01 10:23:24;;;;;;;12.27;9.13;;;23.20;99.90;;;;;;5509370;25;19998;-63
2024/05/01 10:25:54;;;;;;;14.35;9.43;;;23.40;99.90;;;;;;5551418;25;20146;-63
2024/05/01 10:28:28;;;;;;;14.13;10.60;;;23.50;99.90;;;;;;5541222;25;19997;-64
2024/05/01 10:30:58;;;;;;;16.13;10.60;;;23.70;99.90;;;;;;5536984;25;19997;-63
2024/05/01 10:33:31;;;;;;;12.15;9.75;;;23.70;99.90;;;;;;5556691;25;20347;-63
2024/05/01 10:36:01;;;;;;;;;;;23.60;99.90;;;;;;5560492;25;20004;-63
2024/05/01 10:38:28;;;;;;;23.80;11.10;;;23.60;99.90;;;;;;5555897;25;20365;-63
2024/05/01 10:40:54;;;;;;;15.75;10.63;;;23.50;99.90;;;;;;5554226;25;20824;-63
2024/05/01 10:43:20;;;;;;;15.07;10.98;;;23.60;99.90;;;;;;5542284;25;19997;-62
2024/05/01 10:45:53;;;;;;;13.75;10.40;;;23.60;99.90;;;;;;5551806;25;19997;-63
2024/05/01 10:48:20;;;;;;;15.88;11.10;;;23.70;99.90;;;;;;5534365;25;20049;-63
2024/05/01 10:50:47;;;;;;;16.75;12.68;;;23.60;99.90;;;;;;5543044;25;20032;-63
2024/05/01 10:53:14;;;;;;;16.60;11.77;;;23.60;99.90;;;;;;5553812;25;20468;-63
2024/05/01 10:55:41;;;;;;;14.68;11.65;;;23.60;99.90;;;;;;5554269;25;19997;-62
2024/05/01 10:58:08;;;;;;;19.95;12.32;;;23.50;99.90;;;;;;5554758;25;19997;-63
2024/05/01 11:00:38;;;;;;;14.45;12.27;;;23.60;99.90;;;;;;5563874;25;20494;-63
2024/05/01 11:03:04;;;;;;;15.85;12.77;;;23.60;99.90;;;;;;5546012;25;20370;-63
2024/05/01 11:05:31;;;;;;;14.18;12.15;;;23.60;99.90;;;;;;5545263;25;20009;-62
2024/05/01 11:07:57;;;;;;;18.17;12.95;;;23.60;99.90;;;;;;5550053;25;20009;-63
2024/05/01 11:10:22;;;;;;;15.57;13.63;;;23.60;99.90;;;;;;5558842;25;20018;-62
2024/05/01 11:12:50;;;;;;;22.70;13.30;;;23.60;99.90;;;;;;5529557;25;20009;-62
2024/05/01 11:33:25;;;;;;;13.82;12.48;;;23.70;99.90;;;;;;5549635;25;20782;-64
2024/05/01 11:35:52;;;;;;;14.13;12.48;;;23.80;99.90;;;;;;5508949;25;20002;-65
2024/05/01 11:38:17;;;;;;;14.85;11.80;;;23.90;99.90;;;;;;5463802;25;20022;-65
2024/05/01 11:40:43;;;;;;;16.35;11.45;;;24.10;99.90;;;;;;5500947;25;20798;-65
2024/05/01 11:43:09;;;;;;;14.18;10.98;;;24.20;99.90;;;;;;5507908;25;20006;-64
2024/05/01 11:45:34;;;;;;;14.32;10.85;;;24.20;99.90;;;;;;5505192;25;20012;-63
2024/05/01 11:48:00;;;;;;;12.52;10.40;;;24.20;99.90;;;;;;5464741;25;20442;-63
2024/05/01 11:50:26;;;;;;;17.45;11.95;;;24.10;99.90;;;;;;5498613;25;20002;-63
2024/05/01 11:52:51;;;;;;;22.52;11.73;;;24.20;99.90;;;;;;5504743;25;20005;-63
2024/05/01 11:55:26;;;;;;;14.40;10.70;;;24.30;99.90;;;;;;5501481;25;19998;-63
2024/05/01 11:58:11;;;;;;;17.58;10.60;;;24.30;99.90;;;;;;5509581;25;20002;-63
2024/05/01 12:00:38;;;;;;;13.63;12.10;;;24.30;99.90;;;;;;5496307;25;19998;-62
2024/05/01 12:03:05;;;;;;;16.83;12.73;;;24.30;99.90;;;;;;5508986;25;20479;-62
2024/05/01 12:05:32;;;;;;;15.80;11.27;;;24.30;99.90;;;;;;5496901;25;20024;-62
2024/05/01 12:08:06;;;;;;;13.73;10.50;;;24.30;99.90;;;;;;5496528;25;20078;-62
2024/05/01 12:10:32;;;;;;;16.30;11.07;;;24.30;99.90;;;;;;5503371;25;20025;-62
2024/05/01 12:13:05;;;;;;;16.08;11.80;;;24.40;99.90;;;;;;5508452;25;20582;-62
2024/05/01 12:15:31;;;;;;;15.18;12.18;;;24.50;99.90;;;;;;5517845;25;20002;-62
2024/05/01 12:17:57;;;;;;;15.27;11.80;;;24.50;99.90;;;;;;5504721;25;20012;-62
2024/05/01 12:20:26;;;;;;;15.25;11.02;;;24.50;99.90;;;;;;5510620;25;19998;-62
2024/05/01 12:22:52;;;;;;;11.77;10.57;;;24.50;99.90;;;;;;5501828;25;20073;-62
2024/05/01 12:25:20;;;;;;;15.25;10.95;;;24.40;99.90;;;;;;5511022;25;20013;-62
2024/05/01 12:27:46;;;;;;;15.05;11.40;;;24.30;99.90;;;;;;5494751;25;20017;-62
2024/05/01 12:30:22;;;;;;;12.73;10.52;;;24.30;99.90;;;;;;5502954;25;19998;-61
2024/05/01 12:33:10;;;;;;;16.17;10.63;;;24.30;99.90;;;;;;5491668;25;20153;-63
2024/05/01 12:35:44;;;;;;;15.00;10.68;;;24.40;99.90;;;;;;5464578;26;20542;-62
2024/05/01 12:38:14;;;;;;;16.60;10.85;;;24.50;99.90;;;;;;5492890;26;20006;-62
2024/05/01 12:41:05;;;;;;;11.82;10.63;;;24.50;99.90;;;;;;5491375;26;20065;-62
2024/05/01 12:43:45;;;;;;;13.13;10.00;;;24.70;99.90;;;;;;5507821;26;21521;-62
2024/05/01 12:46:22;;;;;;;12.25;9.63;;;24.80;99.90;;;;;;5486493;26;20466;-63